createdAt,value
2019-02-09T00:00:53.105Z,20.67
2019-02-09T00:03:26.694Z,20.10
2019-02-09T00:06:00.335Z,20.63
2019-02-09T00:08:34.010Z,21.17
2019-02-09T00:11:07.847Z,19.37
2019-02-09T00:13:41.495Z,18.67
2019-02-09T00:16:15.226Z,19.80
2019-02-09T00:18:48.826Z,18.87
2019-02-09T00:21:22.544Z,19.47
2019-02-09T00:23:56.194Z,18.70
2019-02-09T00:26:30.359Z,19.97
2019-02-09T00:29:04.180Z,20.80
2019-02-09T00:31:37.869Z,22.07
2019-02-09T00:34:12.824Z,20.70
2019-02-09T00:36:46.456Z,20.37
2019-02-09T00:39:20.049Z,20.27
2019-02-09T00:41:53.697Z,21.43
2019-02-09T00:44:27.288Z,21.37
2019-02-09T00:47:00.940Z,22.07
2019-02-09T00:49:34.536Z,19.23
2019-02-09T00:52:08.342Z,20.03
2019-02-09T00:54:41.927Z,19.97
2019-02-09T00:57:15.567Z,20.30
2019-02-09T00:59:54.046Z,20.50
2019-02-09T01:02:24.431Z,19.00
2019-02-09T01:04:58.122Z,19.50
2019-02-09T01:07:31.752Z,19.20
2019-02-09T01:10:08.503Z,19.37
2019-02-09T01:12:42.296Z,19.50
2019-02-09T01:15:19.552Z,20.07
2019-02-09T01:17:53.313Z,18.87
2019-02-09T01:20:28.936Z,19.80
2019-02-09T01:23:02.707Z,19.33
2019-02-09T01:25:36.273Z,19.47
2019-02-09T01:28:10.032Z,19.87
2019-02-09T01:30:43.848Z,20.07
2019-02-09T01:33:17.479Z,19.03
2019-02-09T01:35:51.061Z,20.20
2019-02-09T01:38:24.768Z,19.30
2019-02-09T01:40:59.494Z,20.27
2019-02-09T01:43:34.605Z,19.27
2019-02-09T01:46:08.354Z,19.70
2019-02-09T01:48:41.993Z,19.47
2019-02-09T01:51:15.657Z,19.43
2019-02-09T01:53:49.282Z,18.70
2019-02-09T01:56:22.940Z,19.57
2019-02-09T01:58:56.558Z,19.30
2019-02-09T02:01:30.143Z,20.47
2019-02-09T02:04:04.377Z,19.93
2019-02-09T02:06:38.140Z,20.80
2019-02-09T02:09:11.777Z,19.87
2019-02-09T02:11:45.490Z,20.23
2019-02-09T02:14:19.296Z,21.07
2019-02-09T02:16:52.901Z,21.47
2019-02-09T02:19:26.543Z,20.50
2019-02-09T02:22:00.203Z,21.70
2019-02-09T02:24:34.862Z,22.37
2019-02-09T02:27:08.462Z,22.07
2019-02-09T02:29:42.090Z,21.67
2019-02-09T02:32:16.025Z,21.13
2019-02-09T02:34:55.550Z,22.97
2019-02-09T02:37:29.128Z,22.67
2019-02-09T02:40:02.858Z,22.57
2019-02-09T02:42:36.514Z,23.23
2019-02-09T02:45:13.061Z,23.53
2019-02-09T02:47:47.818Z,23.40
2019-02-09T02:50:22.776Z,23.30
2019-02-09T02:52:56.353Z,23.53
2019-02-09T02:55:32.400Z,24.33
2019-02-09T02:58:06.131Z,24.43
2019-02-09T03:00:39.907Z,22.53
2019-02-09T03:03:13.483Z,23.63
2019-02-09T03:05:47.183Z,23.93
2019-02-09T03:08:20.757Z,23.33
2019-02-09T03:10:54.380Z,21.77
2019-02-09T03:13:27.959Z,22.60
2019-02-09T03:16:01.707Z,24.57
2019-02-09T03:18:35.280Z,24.60
2019-02-09T03:21:08.907Z,23.17
2019-02-09T03:23:42.555Z,23.00
2019-02-09T03:26:16.109Z,22.07
2019-02-09T03:28:49.767Z,23.33
2019-02-09T03:31:23.453Z,21.37
2019-02-09T03:33:57.088Z,21.93
2019-02-09T03:36:30.743Z,22.00
2019-02-09T03:39:07.003Z,21.53
2019-02-09T03:41:40.584Z,21.87
2019-02-09T03:44:14.216Z,20.73
2019-02-09T03:46:47.791Z,21.27
2019-02-09T03:49:21.492Z,21.73
2019-02-09T03:51:55.081Z,22.20
2019-02-09T03:54:28.705Z,21.77
2019-02-09T03:57:02.343Z,20.03
2019-02-09T03:59:36.027Z,20.87
2019-02-09T04:02:09.784Z,20.93
2019-02-09T04:04:44.885Z,22.73
2019-02-09T04:07:18.465Z,20.97
2019-02-09T04:09:52.198Z,22.37
2019-02-09T04:12:25.863Z,20.93
2019-02-09T04:14:59.485Z,19.80
2019-02-09T04:17:33.070Z,21.60
2019-02-09T04:20:10.033Z,22.73
2019-02-09T04:22:44.132Z,23.50
2019-02-09T04:25:19.893Z,22.47
2019-02-09T04:27:53.603Z,23.50
2019-02-09T04:30:31.972Z,21.87
2019-02-09T04:33:05.647Z,22.77
2019-02-09T04:35:39.283Z,23.20
2019-02-09T04:38:12.937Z,23.07
2019-02-09T04:40:46.647Z,22.87
2019-02-09T04:43:20.232Z,21.30
2019-02-09T04:45:53.855Z,22.77
2019-02-09T04:48:27.447Z,21.87
2019-02-09T04:51:01.225Z,23.20
2019-02-09T04:53:34.978Z,21.50
2019-02-09T04:56:08.785Z,22.63
2019-02-09T04:58:42.327Z,23.47
2019-02-09T05:01:15.963Z,22.13
2019-02-09T05:03:49.688Z,22.87
2019-02-09T05:06:23.364Z,21.83
2019-02-09T05:08:57.006Z,22.13
2019-02-09T05:11:30.599Z,22.13
2019-02-09T05:14:04.384Z,21.63
2019-02-09T05:16:38.058Z,22.23
2019-02-09T05:19:11.733Z,21.67
2019-02-09T05:21:45.411Z,21.63
2019-02-09T05:24:19.090Z,20.63
2019-02-09T05:26:52.681Z,20.17
2019-02-09T05:29:26.306Z,20.20
2019-02-09T05:31:59.970Z,19.87
2019-02-09T05:34:33.561Z,18.63
2019-02-09T05:37:07.203Z,19.20
2019-02-09T05:39:40.971Z,18.97
2019-02-09T05:42:14.645Z,18.93
2019-02-09T05:44:48.410Z,18.53
2019-02-09T05:47:21.995Z,18.73
2019-02-09T05:49:55.679Z,19.57
2019-02-09T05:52:29.267Z,18.70
2019-02-09T05:55:02.885Z,18.10
2019-02-09T05:57:36.556Z,18.60
2019-02-09T06:00:16.495Z,17.23
2019-02-09T06:02:50.159Z,17.73
2019-02-09T06:05:23.901Z,17.60
2019-02-09T06:07:57.629Z,18.23
2019-02-09T06:10:31.247Z,18.40
2019-02-09T06:13:05.104Z,17.67
2019-02-09T06:15:38.861Z,18.23
2019-02-09T06:18:12.593Z,20.10
2019-02-09T06:20:46.293Z,19.27
2019-02-09T06:23:19.884Z,19.00
2019-02-09T06:25:53.845Z,19.27
2019-02-09T06:28:27.435Z,18.73
2019-02-09T06:31:01.149Z,19.73
2019-02-09T06:33:34.743Z,18.37
2019-02-09T06:36:08.492Z,20.33
2019-02-09T06:38:42.179Z,19.67
2019-02-09T06:41:15.819Z,21.73
2019-02-09T06:43:49.421Z,20.93
2019-02-09T06:46:23.023Z,20.30
2019-02-09T06:48:56.681Z,19.50
2019-02-09T06:51:30.315Z,20.53
2019-02-09T06:54:04.263Z,22.33
2019-02-09T06:56:37.981Z,21.40
2019-02-09T06:59:11.591Z,20.87
2019-02-09T07:01:48.763Z,20.27
2019-02-09T07:04:20.463Z,22.17
2019-02-09T07:06:54.069Z,23.00
2019-02-09T07:09:27.702Z,26.30
2019-02-09T07:12:01.303Z,23.90
2019-02-09T07:14:34.887Z,23.90
2019-02-09T07:17:08.660Z,24.10
2019-02-09T07:19:42.327Z,22.17
2019-02-09T07:22:16.005Z,22.80
2019-02-09T07:24:49.595Z,21.80
2019-02-09T07:27:23.606Z,31.27
2019-02-09T07:29:57.299Z,31.20
2019-02-09T07:32:31.027Z,28.27
2019-02-09T07:35:07.636Z,25.17
2019-02-09T07:37:41.258Z,23.50
2019-02-09T07:40:17.757Z,23.43
2019-02-09T07:42:51.548Z,22.40
2019-02-09T07:45:29.872Z,22.30
2019-02-09T07:48:04.466Z,22.20
2019-02-09T07:50:38.124Z,23.73
2019-02-09T07:53:11.832Z,23.60
2019-02-09T07:55:45.501Z,22.70
2019-02-09T07:58:19.119Z,23.70
2019-02-09T08:00:53.994Z,22.83
2019-02-09T08:03:28.746Z,22.27
2019-02-09T08:06:02.306Z,22.73
2019-02-09T08:08:36.086Z,22.93
2019-02-09T08:11:09.842Z,22.27
2019-02-09T08:13:43.440Z,24.40
2019-02-09T08:16:17.096Z,24.03
2019-02-09T08:18:50.818Z,23.33
2019-02-09T08:21:24.542Z,24.10
2019-02-09T08:23:58.134Z,22.53
2019-02-09T08:26:31.846Z,23.20
2019-02-09T08:29:05.510Z,22.77
2019-02-09T08:31:39.271Z,22.20
2019-02-09T08:34:12.936Z,22.57
2019-02-09T08:36:48.507Z,21.70
2019-02-09T08:39:22.156Z,20.23
2019-02-09T08:41:56.102Z,22.67
2019-02-09T08:44:29.702Z,21.20
2019-02-09T08:47:03.987Z,21.77
2019-02-09T08:49:37.706Z,21.27
2019-02-09T08:52:11.386Z,20.87
2019-02-09T08:54:45.036Z,21.07
2019-02-09T08:57:18.846Z,21.73
2019-02-09T08:59:53.008Z,22.47
2019-02-09T09:02:27.038Z,23.43
2019-02-09T09:05:00.783Z,22.53
2019-02-09T09:07:34.383Z,21.47
2019-02-09T09:10:14.402Z,20.83
2019-02-09T09:12:48.041Z,21.90
2019-02-09T09:15:24.660Z,21.03
2019-02-09T09:17:58.418Z,21.33
2019-02-09T09:20:37.319Z,20.97
2019-02-09T09:23:11.026Z,20.43
2019-02-09T09:25:44.750Z,22.07
2019-02-09T09:28:18.654Z,21.50
2019-02-09T09:30:53.782Z,21.70
2019-02-09T09:33:27.483Z,22.00
2019-02-09T09:36:01.320Z,22.57
2019-02-09T09:38:35.075Z,22.77
2019-02-09T09:41:10.138Z,21.40
2019-02-09T09:43:44.088Z,22.13
2019-02-09T09:46:17.774Z,21.47
2019-02-09T09:48:51.520Z,21.53
2019-02-09T09:51:25.266Z,20.70
2019-02-09T09:53:59.005Z,21.37
2019-02-09T09:56:32.736Z,21.40
2019-02-09T09:59:06.644Z,20.77
2019-02-09T10:01:40.346Z,21.87
2019-02-09T10:04:14.015Z,21.13
2019-02-09T10:06:48.627Z,20.67
2019-02-09T10:09:22.252Z,20.73
2019-02-09T10:11:56.146Z,20.40
2019-02-09T10:14:29.912Z,21.27
2019-02-09T10:17:03.540Z,20.47
2019-02-09T10:19:37.114Z,20.07
2019-02-09T10:22:10.776Z,21.10
2019-02-09T10:24:44.416Z,20.37
2019-02-09T10:27:18.104Z,19.33
2019-02-09T10:29:51.760Z,19.77
2019-02-09T10:32:25.483Z,20.27
2019-02-09T10:34:59.083Z,20.20
2019-02-09T10:37:32.776Z,19.37
2019-02-09T10:40:09.424Z,20.83
2019-02-09T10:42:44.183Z,19.87
2019-02-09T10:45:23.470Z,19.67
2019-02-09T10:47:59.759Z,18.53
2019-02-09T10:50:36.484Z,20.23
2019-02-09T10:53:10.260Z,19.53
2019-02-09T10:55:44.024Z,20.03
2019-02-09T10:58:17.708Z,20.93
2019-02-09T11:00:57.412Z,20.40
2019-02-09T11:03:31.380Z,18.50
2019-02-09T11:06:05.113Z,17.97
2019-02-09T11:08:38.834Z,19.40
2019-02-09T11:11:13.648Z,18.23
2019-02-09T11:13:47.720Z,18.93
2019-02-09T11:16:21.417Z,17.17
2019-02-09T11:18:55.946Z,18.90
2019-02-09T11:21:30.318Z,18.43
2019-02-09T11:24:04.931Z,17.10
2019-02-09T11:26:38.633Z,16.40
2019-02-09T11:29:12.437Z,16.90
2019-02-09T11:31:46.271Z,16.17
2019-02-09T11:34:20.125Z,15.40
2019-02-09T11:36:57.075Z,17.03
2019-02-09T11:39:30.759Z,16.70
2019-02-09T11:42:04.522Z,15.97
2019-02-09T11:44:41.109Z,17.07
2019-02-09T11:47:14.118Z,16.87
2019-02-09T11:49:47.715Z,17.13
2019-02-09T11:52:22.225Z,16.97
2019-02-09T11:54:55.970Z,16.50
2019-02-09T11:57:29.611Z,17.47
2019-02-09T12:00:05.618Z,15.70
2019-02-09T12:02:39.287Z,16.27
2019-02-09T12:05:13.488Z,15.53
2019-02-09T12:07:47.241Z,16.17
2019-02-09T12:10:26.187Z,15.90
2019-02-09T12:12:59.966Z,14.60
2019-02-09T12:15:36.141Z,15.20
2019-02-09T12:18:14.353Z,15.03
2019-02-09T12:20:47.999Z,13.20
2019-02-09T12:23:21.695Z,13.47
2019-02-09T12:25:55.382Z,12.33
2019-02-09T12:28:28.981Z,13.30
2019-02-09T12:31:02.633Z,12.43
2019-02-09T12:33:36.365Z,11.73
2019-02-09T12:36:10.555Z,12.60
2019-02-09T12:38:44.199Z,12.20
2019-02-09T12:41:17.801Z,13.87
2019-02-09T12:43:51.466Z,11.77
2019-02-09T12:46:25.124Z,12.27
2019-02-09T12:48:58.753Z,11.70
2019-02-09T12:51:32.420Z,12.40
2019-02-09T12:54:06.282Z,12.73
2019-02-09T12:56:39.862Z,12.37
2019-02-09T12:59:15.120Z,13.10
2019-02-09T13:01:48.941Z,12.93
2019-02-09T13:04:22.628Z,12.20
2019-02-09T13:06:56.276Z,12.30
2019-02-09T13:09:29.919Z,12.20
2019-02-09T13:12:03.887Z,12.50
2019-02-09T13:14:38.490Z,13.17
2019-02-09T13:17:12.385Z,12.60
2019-02-09T13:19:46.027Z,13.60
2019-02-09T13:22:20.186Z,13.37
2019-02-09T13:24:53.872Z,12.07
2019-02-09T13:27:27.461Z,12.37
2019-02-09T13:30:01.175Z,12.53
2019-02-09T13:32:34.783Z,13.20
2019-02-09T13:35:10.932Z,12.40
2019-02-09T13:41:13.320Z,11.40
2019-02-09T13:43:47.569Z,12.47
2019-02-09T13:46:21.257Z,11.53
2019-02-09T13:48:54.915Z,11.47
2019-02-09T13:51:28.657Z,11.50
2019-02-09T13:57:39.278Z,11.83
2019-02-09T14:00:19.670Z,10.40
2019-02-09T14:02:54.139Z,10.80
2019-02-09T14:05:27.967Z,11.60
2019-02-09T14:08:01.740Z,11.80
2019-02-09T14:10:35.521Z,10.70
2019-02-09T14:13:14.280Z,10.13
2019-02-09T14:15:44.383Z,9.60
2019-02-09T14:18:18.076Z,11.23
2019-02-09T14:20:51.739Z,10.30
2019-02-09T14:23:25.377Z,11.07
2019-02-09T14:25:58.961Z,11.57
2019-02-09T14:28:32.951Z,10.47
2019-02-09T14:31:06.671Z,10.13
2019-02-09T14:33:40.290Z,10.33
2019-02-09T14:36:14.019Z,10.37
2019-02-09T14:38:48.287Z,10.33
2019-02-09T14:41:22.042Z,10.70
2019-02-09T14:43:55.715Z,11.10
2019-02-09T14:46:29.367Z,10.80
2019-02-09T14:49:02.970Z,11.17
2019-02-09T14:51:36.560Z,12.27
2019-02-09T14:54:10.492Z,12.77
2019-02-09T14:56:44.119Z,12.63
2019-02-09T14:59:17.741Z,12.43
2019-02-09T15:01:52.442Z,12.00
2019-02-09T15:04:26.093Z,12.73
2019-02-09T15:06:59.747Z,12.70
2019-02-09T15:09:33.475Z,11.67
2019-02-09T15:12:07.191Z,13.20
2019-02-09T15:14:40.785Z,13.37
2019-02-09T15:17:14.548Z,13.60
2019-02-09T15:19:48.134Z,13.23
2019-02-09T15:22:21.785Z,13.27
2019-02-09T15:24:55.431Z,13.73
2019-02-09T15:27:29.065Z,11.53
2019-02-09T15:30:02.798Z,12.50
2019-02-09T15:32:36.519Z,13.70
2019-02-09T15:35:13.852Z,12.30
2019-02-09T15:37:47.559Z,11.37
2019-02-09T15:40:22.428Z,11.03
2019-02-09T15:42:56.053Z,13.00
2019-02-09T15:45:30.185Z,12.93
2019-02-09T15:48:04.481Z,12.40
2019-02-09T15:50:38.057Z,11.20
2019-02-09T15:53:11.669Z,12.70
2019-02-09T15:55:45.323Z,12.63
2019-02-09T15:58:19.127Z,11.70
2019-02-09T16:00:52.719Z,11.77
2019-02-09T16:03:26.381Z,11.10
2019-02-09T16:06:00.052Z,10.90
2019-02-09T16:08:33.677Z,10.33
2019-02-09T16:11:07.345Z,11.57
2019-02-09T16:13:45.576Z,12.20
2019-02-09T16:16:16.498Z,11.63
2019-02-09T16:18:50.103Z,13.57
2019-02-09T16:21:23.831Z,13.90
2019-02-09T16:27:34.546Z,11.20
2019-02-09T16:30:18.516Z,12.40
2019-02-09T16:32:50.000Z,11.03
2019-02-09T16:35:30.322Z,10.37
2019-02-09T16:38:03.973Z,11.60
2019-02-09T16:44:15.077Z,11.37
2019-02-09T16:46:48.738Z,11.03
2019-02-09T16:49:24.005Z,11.57
2019-02-09T16:51:57.752Z,10.27
2019-02-09T16:54:31.852Z,9.60
2019-02-09T16:57:05.507Z,10.73
2019-02-09T16:59:39.214Z,10.63
2019-02-09T17:02:12.888Z,11.33
2019-02-09T17:04:46.594Z,11.00
2019-02-09T17:07:20.209Z,10.77
2019-02-09T17:09:54.860Z,10.30
2019-02-09T17:12:28.440Z,9.63
2019-02-09T17:15:02.150Z,9.80
2019-02-09T17:17:35.812Z,9.17
2019-02-09T17:20:11.852Z,8.93
2019-02-09T17:22:45.514Z,8.27
2019-02-09T17:25:23.252Z,8.70
2019-02-09T17:27:56.953Z,9.00
2019-02-09T17:30:32.276Z,8.60
2019-02-09T17:33:06.431Z,9.03
2019-02-09T17:35:40.187Z,10.47
2019-02-09T17:38:13.837Z,8.37
2019-02-09T17:40:48.439Z,8.43
2019-02-09T17:43:22.100Z,7.53
2019-02-09T17:46:01.510Z,8.07
2019-02-09T17:48:35.100Z,6.70
2019-02-09T17:51:08.810Z,7.03
2019-02-09T17:53:42.416Z,6.73
2019-02-09T17:56:16.101Z,5.83
2019-02-09T17:58:49.754Z,6.37
2019-02-09T18:01:23.404Z,6.17
2019-02-09T18:03:57.062Z,6.77
2019-02-09T18:06:30.656Z,6.47
2019-02-09T18:09:06.890Z,7.17
2019-02-09T18:11:40.539Z,8.20
2019-02-09T18:14:14.493Z,8.53
2019-02-09T18:16:48.161Z,7.60
2019-02-09T18:19:21.839Z,8.87
2019-02-09T18:21:55.491Z,8.57
2019-02-09T18:28:06.681Z,8.87
2019-02-09T18:30:40.436Z,7.60
2019-02-09T18:33:16.277Z,7.87
2019-02-09T18:35:50.041Z,8.07
2019-02-09T18:38:23.626Z,6.17
2019-02-09T18:44:23.943Z,7.40
2019-02-09T18:46:57.639Z,7.20
2019-02-09T18:49:31.278Z,6.57
2019-02-09T18:52:05.197Z,6.37
2019-02-09T18:54:38.778Z,5.47
2019-02-09T18:57:12.410Z,4.60
2019-02-09T18:59:45.996Z,3.83
2019-02-09T19:02:19.641Z,4.57
2019-02-09T19:04:53.204Z,3.50
2019-02-09T19:07:26.877Z,3.70
2019-02-09T19:10:00.520Z,4.20
2019-02-09T19:12:34.148Z,4.40
2019-02-09T19:15:11.284Z,3.97
2019-02-09T19:17:45.120Z,4.80
2019-02-09T19:20:24.395Z,4.53
2019-02-09T19:22:58.157Z,5.20
2019-02-09T19:25:32.159Z,6.10
2019-02-09T19:28:06.360Z,6.20
2019-02-09T19:30:40.018Z,6.47
2019-02-09T19:33:13.692Z,5.87
2019-02-09T19:35:47.290Z,6.10
2019-02-09T19:38:21.044Z,5.50
2019-02-09T19:40:54.631Z,5.87
2019-02-09T19:43:28.410Z,5.60
2019-02-09T19:46:02.159Z,5.53
2019-02-09T19:48:35.840Z,5.57
2019-02-09T19:51:09.508Z,5.80
2019-02-09T19:53:45.163Z,5.77
2019-02-09T19:56:18.825Z,5.67
2019-02-09T19:58:52.467Z,5.83
2019-02-09T20:01:26.541Z,4.63
2019-02-09T20:04:00.226Z,5.40
2019-02-09T20:06:33.853Z,5.83
2019-02-09T20:09:07.540Z,5.90
2019-02-09T20:11:41.255Z,5.40
2019-02-09T20:14:14.839Z,4.37
2019-02-09T20:16:48.480Z,3.90
2019-02-09T20:19:22.149Z,3.80
2019-02-09T20:21:55.764Z,3.77
2019-02-09T20:24:29.364Z,4.00
2019-02-09T20:27:03.064Z,4.67
2019-02-09T20:29:36.791Z,5.23
2019-02-09T20:32:10.468Z,4.80
2019-02-09T20:34:44.056Z,4.77
2019-02-09T20:37:17.763Z,4.80
2019-02-09T20:39:51.343Z,4.00
2019-02-09T20:42:24.987Z,4.10
2019-02-09T20:44:58.574Z,4.00
2019-02-09T20:47:32.267Z,4.73
2019-02-09T20:50:08.938Z,3.67
2019-02-09T20:52:42.555Z,4.53
2019-02-09T20:55:17.372Z,4.07
2019-02-09T20:57:51.131Z,3.97
2019-02-09T21:00:27.845Z,3.77
2019-02-09T21:03:01.431Z,3.47
2019-02-09T21:05:36.767Z,3.60
2019-02-09T21:08:10.683Z,4.60
2019-02-09T21:14:21.472Z,4.20
2019-02-09T21:16:55.052Z,3.80
2019-02-09T21:19:28.761Z,3.70
2019-02-09T21:22:02.335Z,3.40
2019-02-09T21:24:35.961Z,3.50
2019-02-09T21:30:55.879Z,4.30
2019-02-09T21:33:29.504Z,3.40
2019-02-09T21:36:04.644Z,3.83
2019-02-09T21:38:38.294Z,4.47
2019-02-09T21:41:11.888Z,3.60
2019-02-09T21:43:45.671Z,4.23
2019-02-09T21:46:19.313Z,3.57
2019-02-09T21:48:52.925Z,3.50
2019-02-09T21:51:26.518Z,4.03
2019-02-09T21:54:00.130Z,4.77
2019-02-09T21:56:35.151Z,3.77
2019-02-09T21:59:08.720Z,4.40
2019-02-09T22:01:42.421Z,4.13
2019-02-09T22:04:15.992Z,4.07
2019-02-09T22:06:49.647Z,4.13
2019-02-09T22:09:23.286Z,3.73
2019-02-09T22:11:57.049Z,4.30
2019-02-09T22:14:30.714Z,3.97
2019-02-09T22:17:04.565Z,4.13
2019-02-09T22:19:38.173Z,3.70
2019-02-09T22:22:11.897Z,4.13
2019-02-09T22:24:45.514Z,4.73
2019-02-09T22:27:21.558Z,4.20
2019-02-09T22:29:55.211Z,3.67
2019-02-09T22:32:28.933Z,3.90
2019-02-09T22:35:02.528Z,4.13
2019-02-09T22:37:36.374Z,3.90
2019-02-09T22:40:13.148Z,4.80
2019-02-09T22:42:46.941Z,4.17
2019-02-09T22:45:22.599Z,10.17
2019-02-09T22:47:57.272Z,12.43
2019-02-09T22:50:36.862Z,16.17
2019-02-09T22:53:10.617Z,4.93
2019-02-09T22:55:44.368Z,4.73
2019-02-09T22:58:18.009Z,3.50
2019-02-09T23:01:03.711Z,4.40
2019-02-09T23:03:45.661Z,8.17
2019-02-09T23:06:22.331Z,6.90
2019-02-09T23:08:57.750Z,3.50
2019-02-09T23:15:09.559Z,2.80
2019-02-09T23:17:43.191Z,3.63
2019-02-09T23:20:16.775Z,3.90
2019-02-09T23:22:50.405Z,3.73
2019-02-09T23:25:23.991Z,3.27
2019-02-09T23:31:34.591Z,4.30
2019-02-09T23:34:08.168Z,3.57
2019-02-09T23:36:42.234Z,3.17
2019-02-09T23:39:15.885Z,3.27
2019-02-09T23:41:49.559Z,4.13
2019-02-09T23:44:23.145Z,3.30
2019-02-09T23:46:56.769Z,3.17
2019-02-09T23:49:30.348Z,2.80
2019-02-09T23:52:04.039Z,2.97
2019-02-09T23:54:37.691Z,3.00
2019-02-09T23:57:11.320Z,2.97
2019-02-09T23:59:44.915Z,2.70
